Buena Ventura Lakes, Florida
Current Conditions -  °F | °C
As of 11:50 AM on Friday 28 Nov 2014 (Local Time) from KISM Reporting Station
Clear Clear  
Wind Chill: 57°   Ceiling: Unl
Heat Index: 57°   Visibility: 10mi
Dew Point: 43°   Wind: 6mph
Humidity: 59%   Direction: 360°N
Pressure: 30.31"   Gusts: NA
Location:  28.34°N, 81.35°W
Report Text: KISM 281650Z 36005KT 10SM SKC 14/06 A3031
Loading
Personal Weather Stations






























Interactive Weather Map New forecast layout! Learn more

10-Day Weather Forecast

Advertisements
Track Severe Weather on mobile